Archival Weather

Chicago O'Hare International

Chicago, Illinois (KORD)

Report from: Wednesday, September 6, 2023 3:59 AM CDT
Current time: Wednesday, May 29, 2024 7:35 PM CDT

Current weather – Weather history – Daily summaries
Weather forecast

Temperature25.6°C (78.1°F)
Dew point22.8°C (73.0°F)
Winds 9 kts (4.6 m/s, 10.4 mph) Southwest (220°)
Visibility10 mi. (16.1 km)
Clouds Ceiling: Overcast 1,400 ft. (427 m)
Altimeter29.76 in.Hg (1008 mB)
Relative humidity85 %
Density altitude1,783 ft. (543 m)
Remarks Automated weather observing station with precipitation discriminator
Lightning observed
Distant
Flight conditions Marginal Visual Meteorological Conditions
Raw dataKORD 060859Z 22009KT 10SM OVC014 26/23 A2976 RMK AO2 LTG DSNT ALQDS T02560228
An error has occurred. This application may no longer respond until reloaded. Reload 🗙